createdAt,value
2023-03-02T00:01:39.600Z,95534.00
2023-03-02T00:07:17.350Z,95531.00
2023-03-02T00:12:45.285Z,95537.00
2023-03-02T00:18:13.099Z,95528.00
2023-03-02T00:23:41.040Z,95527.00
2023-03-02T00:29:09.250Z,95524.00
2023-03-02T00:34:37.225Z,95533.00
2023-03-02T00:40:09.536Z,95532.00
2023-03-02T00:45:37.394Z,95534.00
2023-03-02T00:51:06.826Z,95540.00
2023-03-02T00:56:35.316Z,95527.00
2023-03-02T01:02:07.019Z,95514.00
2023-03-02T01:07:35.798Z,95514.00
2023-03-02T01:13:04.766Z,95509.00
2023-03-02T01:18:34.536Z,95501.00
2023-03-02T01:24:03.125Z,95492.00
2023-03-02T01:29:31.250Z,95485.00
2023-03-02T01:34:58.984Z,95473.00
2023-03-02T01:40:27.187Z,95479.00
2023-03-02T01:45:57.258Z,95484.00
2023-03-02T01:51:42.718Z,95482.00
2023-03-02T01:57:11.754Z,95475.00
2023-03-02T02:02:41.985Z,95466.00
2023-03-02T02:08:10.614Z,95458.00
2023-03-02T02:13:39.596Z,95464.00
2023-03-02T02:19:42.426Z,95452.00
2023-03-02T02:25:53.274Z,95451.00
2023-03-02T02:31:27.778Z,95461.00
2023-03-02T02:37:03.845Z,95450.00
2023-03-02T02:42:37.709Z,95440.00
2023-03-02T02:48:11.508Z,95434.00
2023-03-02T02:53:58.768Z,95439.00
2023-03-02T02:59:53.953Z,95434.00
2023-03-02T03:05:22.564Z,95434.00
2023-03-02T03:10:50.682Z,95444.00
2023-03-02T03:16:21.562Z,95434.00
2023-03-02T03:21:58.579Z,95425.00
2023-03-02T03:27:29.000Z,95434.00
2023-03-02T03:32:57.084Z,95431.00
2023-03-02T03:38:25.357Z,95428.00
2023-03-02T03:43:53.862Z,95422.00
2023-03-02T03:49:23.136Z,95433.00
2023-03-02T03:54:51.189Z,95423.00
2023-03-02T04:00:20.014Z,95419.00
2023-03-02T04:05:54.616Z,95412.00
2023-03-02T04:11:23.265Z,95408.00
2023-03-02T04:16:53.347Z,95415.00
2023-03-02T04:22:23.744Z,95404.00
2023-03-02T04:27:53.968Z,95411.00
2023-03-02T04:33:23.120Z,95413.00
2023-03-02T04:38:51.855Z,95409.00
2023-03-02T04:44:21.332Z,95415.00
2023-03-02T04:49:50.836Z,95414.00
2023-03-02T04:55:22.652Z,95400.00
2023-03-02T05:00:50.371Z,95411.00
2023-03-02T05:06:21.742Z,95405.00
2023-03-02T05:11:49.926Z,95410.00
2023-03-02T05:17:17.980Z,95411.00
2023-03-02T05:22:46.180Z,95422.00
2023-03-02T05:28:14.345Z,95413.00
2023-03-02T05:33:42.006Z,95420.00
2023-03-02T05:39:10.422Z,95413.00
2023-03-02T05:44:38.429Z,95419.00
2023-03-02T05:50:06.967Z,95421.00
2023-03-02T05:55:37.232Z,95424.00
2023-03-02T06:01:13.573Z,95432.00
2023-03-02T06:06:42.934Z,95424.00
2023-03-02T06:12:10.898Z,95419.00
2023-03-02T06:17:38.870Z,95430.00
2023-03-02T06:23:06.736Z,95429.00
2023-03-02T06:28:49.688Z,95443.00
2023-03-02T06:34:19.593Z,95445.00
2023-03-02T06:39:47.805Z,95446.00
2023-03-02T06:45:15.640Z,95435.00
2023-03-02T06:50:43.788Z,95438.00
2023-03-02T06:56:12.087Z,95440.00
2023-03-02T07:01:40.173Z,95436.00
2023-03-02T07:07:07.943Z,95446.00
2023-03-02T07:12:36.291Z,95452.00
2023-03-02T07:18:04.081Z,95460.00
2023-03-02T07:23:33.708Z,95444.00
2023-03-02T07:29:01.913Z,95442.00
2023-03-02T07:34:30.864Z,95454.00
2023-03-02T07:40:00.610Z,95463.00
2023-03-02T07:45:28.672Z,95467.00
2023-03-02T07:51:05.267Z,95478.00
2023-03-02T07:56:33.410Z,95478.00
2023-03-02T08:02:01.090Z,95477.00
2023-03-02T08:07:28.934Z,95482.00
2023-03-02T08:12:56.790Z,95480.00
2023-03-02T08:18:24.655Z,95489.00
2023-03-02T08:23:53.016Z,95494.00
2023-03-02T08:29:21.423Z,95512.00
2023-03-02T08:34:51.870Z,95497.00
2023-03-02T08:40:19.889Z,95499.00
2023-03-02T08:45:55.080Z,95484.00
2023-03-02T08:51:25.068Z,95488.00
2023-03-02T08:56:53.192Z,95495.00
2023-03-02T09:02:21.901Z,95493.00
2023-03-02T09:07:50.242Z,95494.00
2023-03-02T09:13:18.096Z,95508.00
2023-03-02T09:18:47.296Z,95493.00
2023-03-02T09:24:14.990Z,95495.00
2023-03-02T09:29:42.871Z,95507.00
2023-03-02T09:35:10.965Z,95501.00
2023-03-02T09:41:07.684Z,95509.00
2023-03-02T09:46:54.476Z,95506.00
2023-03-02T09:52:32.797Z,95504.00
2023-03-02T09:58:05.302Z,95512.00
2023-03-02T10:03:47.201Z,95510.00
2023-03-02T10:09:15.437Z,95506.00
2023-03-02T10:15:31.590Z,95511.00
2023-03-02T10:21:23.189Z,95513.00
2023-03-02T10:26:59.724Z,95512.00
2023-03-02T10:32:36.442Z,95517.00
2023-03-02T10:38:23.340Z,95517.00
2023-03-02T10:44:14.562Z,95524.00
2023-03-02T10:49:43.319Z,95517.00
2023-03-02T10:55:15.944Z,95511.00
2023-03-02T11:00:44.227Z,95520.00
2023-03-02T11:06:25.413Z,95512.00
2023-03-02T11:11:57.041Z,95511.00
2023-03-02T11:17:38.593Z,95505.00
2023-03-02T11:23:38.748Z,95502.00
2023-03-02T11:29:50.455Z,95501.00
2023-03-02T11:35:59.303Z,95493.00
2023-03-02T11:41:33.531Z,95490.00
2023-03-02T11:47:06.175Z,95475.00
2023-03-02T11:52:53.471Z,95489.00
2023-03-02T11:58:25.476Z,95477.00
2023-03-02T12:04:07.469Z,95480.00
2023-03-02T12:09:38.018Z,95475.00
2023-03-02T12:15:39.270Z,95486.00
2023-03-02T12:21:13.360Z,95475.00
2023-03-02T12:26:41.237Z,95476.00
2023-03-02T12:32:27.322Z,95471.00
2023-03-02T12:38:25.298Z,95481.00
2023-03-02T12:44:35.595Z,95471.00
2023-03-02T12:50:18.001Z,95470.00
2023-03-02T12:55:46.822Z,95460.00
2023-03-02T13:01:24.599Z,95459.00
2023-03-02T13:06:54.305Z,95459.00
2023-03-02T13:12:23.240Z,95451.00
2023-03-02T13:18:04.652Z,95451.00
2023-03-02T13:23:34.055Z,95454.00
2023-03-02T13:29:14.860Z,95446.00
2023-03-02T13:34:51.187Z,95446.00
2023-03-02T13:40:30.231Z,95443.00
2023-03-02T13:46:06.059Z,95440.00
2023-03-02T13:51:44.356Z,95450.00
2023-03-02T13:57:30.656Z,95450.00
2023-03-02T14:03:00.579Z,95444.00
2023-03-02T14:08:28.914Z,95451.00
2023-03-02T14:14:03.239Z,95463.00
2023-03-02T14:19:31.323Z,95448.00
2023-03-02T14:24:59.398Z,95440.00
2023-03-02T14:30:27.844Z,95435.00
2023-03-02T14:35:58.636Z,95429.00
2023-03-02T14:41:29.220Z,95417.00
2023-03-02T14:46:58.302Z,95431.00
2023-03-02T14:52:34.924Z,95429.00
2023-03-02T14:58:20.318Z,95424.00
2023-03-02T15:03:48.553Z,95413.00
2023-03-02T15:09:17.654Z,95421.00
2023-03-02T15:14:45.661Z,95436.00
2023-03-02T15:20:17.151Z,95439.00
2023-03-02T15:25:45.342Z,95447.00
2023-03-02T15:31:16.554Z,95441.00
2023-03-02T15:36:44.438Z,95436.00
2023-03-02T15:42:13.919Z,95448.00
2023-03-02T15:47:41.918Z,95463.00
2023-03-02T15:53:10.099Z,95465.00
2023-03-02T15:58:38.048Z,95481.00
2023-03-02T16:04:05.873Z,95477.00
2023-03-02T16:09:33.752Z,95472.00
2023-03-02T16:15:01.724Z,95483.00
2023-03-02T16:20:29.499Z,95480.00
2023-03-02T16:26:11.312Z,95486.00
2023-03-02T16:31:41.034Z,95494.00
2023-03-02T16:37:09.188Z,95507.00
2023-03-02T16:42:37.182Z,95510.00
2023-03-02T16:48:07.062Z,95521.00
2023-03-02T16:53:35.378Z,95518.00
2023-03-02T16:59:03.496Z,95535.00
2023-03-02T17:04:35.236Z,95533.00
2023-03-02T17:10:04.903Z,95547.00
2023-03-02T17:15:33.309Z,95543.00
2023-03-02T17:21:01.420Z,95550.00
2023-03-02T17:26:29.232Z,95557.00
2023-03-02T17:31:57.141Z,95567.00
2023-03-02T17:37:26.094Z,95569.00
2023-03-02T17:42:57.378Z,95578.00
2023-03-02T17:48:26.779Z,95578.00
2023-03-02T17:53:56.313Z,95583.00
2023-03-02T17:59:24.198Z,95586.00
2023-03-02T18:04:52.829Z,95590.00
2023-03-02T18:10:20.652Z,95593.00
2023-03-02T18:15:48.490Z,95601.00
2023-03-02T18:21:17.428Z,95592.00
2023-03-02T18:26:45.376Z,95599.00
2023-03-02T18:32:13.706Z,95601.00
2023-03-02T18:37:41.653Z,95606.00
2023-03-02T18:43:11.791Z,95607.00
2023-03-02T18:48:40.699Z,95606.00
2023-03-02T18:54:12.874Z,95609.00
2023-03-02T18:59:44.396Z,95614.00
2023-03-02T19:05:12.587Z,95614.00
2023-03-02T19:10:42.328Z,95614.00
2023-03-02T19:16:10.211Z,95615.00
2023-03-02T19:21:39.060Z,95613.00
2023-03-02T19:27:09.716Z,95628.00
2023-03-02T19:32:38.969Z,95637.00
2023-03-02T19:38:09.630Z,95644.00
2023-03-02T19:43:38.113Z,95649.00
2023-03-02T19:49:06.348Z,95643.00
2023-03-02T19:54:34.538Z,95647.00
2023-03-02T20:00:05.292Z,95651.00
2023-03-02T20:05:37.290Z,95651.00
2023-03-02T20:11:06.807Z,95644.00
2023-03-02T20:16:36.537Z,95647.00
2023-03-02T20:22:07.723Z,95652.00
2023-03-02T20:27:35.935Z,95652.00
2023-03-02T20:33:08.428Z,95637.00
2023-03-02T20:38:45.773Z,95648.00
2023-03-02T20:44:14.967Z,95654.00
2023-03-02T20:49:43.478Z,95650.00
2023-03-02T20:55:12.620Z,95656.00
2023-03-02T21:00:41.438Z,95655.00
2023-03-02T21:06:12.140Z,95661.00
2023-03-02T21:11:41.102Z,95662.00
2023-03-02T21:17:10.070Z,95663.00
2023-03-02T21:22:38.394Z,95660.00
2023-03-02T21:28:06.667Z,95667.00
2023-03-02T21:33:34.520Z,95660.00
2023-03-02T21:39:03.458Z,95659.00
2023-03-02T21:44:31.481Z,95654.00
2023-03-02T21:49:59.332Z,95654.00
2023-03-02T21:55:29.589Z,95660.00
2023-03-02T22:00:57.836Z,95662.00
2023-03-02T22:06:29.268Z,95661.00
2023-03-02T22:11:58.122Z,95664.00
2023-03-02T22:17:26.028Z,95661.00
2023-03-02T22:22:54.543Z,95663.00
2023-03-02T22:28:26.309Z,95659.00
2023-03-02T22:33:54.384Z,95654.00
2023-03-02T22:39:31.094Z,95656.00
2023-03-02T22:45:15.135Z,95658.00
2023-03-02T22:50:47.060Z,95651.00
2023-03-02T22:56:41.241Z,95667.00
2023-03-02T23:02:15.763Z,95663.00
2023-03-02T23:07:44.657Z,95661.00
2023-03-02T23:13:18.700Z,95662.00
2023-03-02T23:18:50.622Z,95658.00
2023-03-02T23:24:22.154Z,95668.00
2023-03-02T23:29:50.894Z,95668.00
2023-03-02T23:35:18.864Z,95662.00
2023-03-02T23:40:47.795Z,95667.00
2023-03-02T23:46:15.693Z,95665.00
2023-03-02T23:51:45.195Z,95660.00
2023-03-02T23:57:14.267Z,95659.00
